Time;durP1;ratioP1;P1;durP2;ratioP2;P2;SDS_P1;SDS_P2;PMS_P1;PMS_P2;Temp;Humidity;BMP_temperature;BMP_pressure;BME280_temperature;BME280_humidity;BME280_pressure;Samples;Min_cycle;Max_cycle;Signal;HPM_P1;HPM_P2
2022/09/29 00:04:44;;;;;;;;;;;;;;;;;;10418864;28;19925;-58
2022/09/29 00:09:46;;;;;;;;;;;;;;;;;;10418810;28;19925;-58
2022/09/29 00:14:48;;;;;;;;;;;;;;;;;;10417664;28;19987;-58
2022/09/29 00:19:50;;;;;;;;;;;;;;;;;;10419259;28;19925;-58
2022/09/29 00:24:52;;;;;;;;;;;;;;;;;;10418960;28;19979;-58
2022/09/29 00:29:54;;;;;;;;;;;;;;;;;;10417771;28;19952;-58
2022/09/29 00:34:56;;;;;;;;;;;;;;;;;;10417078;28;19995;-58
2022/09/29 00:39:58;;;;;;;;;;;;;;;;;;10418433;28;19925;-58
2022/09/29 00:45:00;;;;;;;;;;;;;;;;;;10417403;28;20261;-58
2022/09/29 00:50:02;;;;;;;;;;;;;;;;;;10416509;28;19925;-58
2022/09/29 00:55:04;;;;;;;;;;;;;;;;;;10414980;28;19971;-57
2022/09/29 01:00:07;;;;;;;;;;;;;;;;;;10417073;28;19976;-57
2022/09/29 01:05:09;;;;;;;;;;;;;;;;;;10416909;28;20301;-58
2022/09/29 01:10:11;;;;;;;;;;;;;;;;;;10415702;28;19929;-58
2022/09/29 01:15:13;;;;;;;;;;;;;;;;;;10413360;28;19971;-57
2022/09/29 01:20:15;;;;;;;;;;;;;;;;;;10415910;28;19933;-58
2022/09/29 01:25:18;;;;;;;;;;;;;;;;;;10416735;28;19983;-58
2022/09/29 01:30:20;;;;;;;;;;;;;;;;;;10416654;28;19929;-58
2022/09/29 01:35:22;;;;;;;;;;;;;;;;;;10414280;28;19925;-58
2022/09/29 01:40:24;;;;;;;;;;;;;;;;;;10415313;28;19925;-57
2022/09/29 01:45:26;;;;;;;;;;;;;;;;;;10415980;28;19925;-58
2022/09/29 01:50:28;;;;;;;;;;;;;;;;;;10415271;28;19936;-58
2022/09/29 01:55:30;;;;;;;;;;;;;;;;;;10415105;28;19971;-57
2022/09/29 02:00:32;;;;;;;;;;;;;;;;;;10414226;28;20419;-57
2022/09/29 02:05:34;;;;;;;;;;;;;;;;;;10415831;28;19931;-57
2022/09/29 02:10:36;;;;;;;;;;;;;;;;;;10415250;28;19925;-58
2022/09/29 02:15:38;;;;;;;;;;;;;;;;;;10413772;28;19975;-57
2022/09/29 02:20:40;;;;;;;;;;;;;;;;;;10414993;28;20433;-58
2022/09/29 02:25:42;;;;;;;;;;;;;;;;;;10417175;28;19979;-58
2022/09/29 02:30:44;;;;;;;;;;;;;;;;;;10422719;28;19925;-57
2022/09/29 02:35:46;;;;;;;;;;;;;;;;;;10422380;28;19925;-58
2022/09/29 02:40:50;;;;;;;;;;;;;;;;;;10422490;28;20339;-58
2022/09/29 02:45:52;;;;;;;;;;;;;;;;;;10423121;28;19999;-57
2022/09/29 02:50:54;;;;;;;;;;;;;;;;;;10420265;28;20319;-57
2022/09/29 02:55:56;;;;;;;;;;;;;;;;;;10420950;28;19979;-57
2022/09/29 03:00:58;;;;;;;;;;;;;;;;;;10421585;28;19929;-57
2022/09/29 03:06:00;;;;;;;;;;;;;;;;;;10421469;28;19926;-57
2022/09/29 03:11:02;;;;;;;;;;;;;;;;;;10421965;28;19925;-57
2022/09/29 03:16:04;;;;;;;;;;;;;;;;;;10420240;28;20419;-57
2022/09/29 03:21:06;;;;;;;;;;;;;;;;;;10419995;28;20356;-58
2022/09/29 03:26:08;;;;;;;;;;;;;;;;;;10421345;28;19955;-57
2022/09/29 03:31:10;;;;;;;;;;;;;;;;;;10420061;28;19951;-57
2022/09/29 03:36:12;;;;;;;;;;;;;;;;;;10419607;28;19925;-57
2022/09/29 03:41:14;;;;;;;;;;;;;;;;;;10419344;28;19925;-58
2022/09/29 03:46:17;;;;;;;;;;;;;;;;;;10420227;28;19925;-57
2022/09/29 03:51:19;;;;;;;;;;;;;;;;;;10420757;28;19971;-58
2022/09/29 03:56:21;;;;;;;;;;;;;;;;;;10417460;28;20267;-57
2022/09/29 04:01:23;;;;;;;;;;;;;;;;;;10419212;28;19979;-57
2022/09/29 04:06:25;;;;;;;;;;;;;;;;;;10419814;28;19965;-60
2022/09/29 04:11:27;;;;;;;;;;;;;;;;;;10419665;28;19925;-59
2022/09/29 04:16:30;;;;;;;;;;;;;;;;;;10417832;28;20380;-59
2022/09/29 04:21:33;;;;;;;;;;;;;;;;;;10416438;28;20142;-59
2022/09/29 04:26:35;;;;;;;;;;;;;;;;;;10418416;28;19926;-59
2022/09/29 04:31:37;;;;;;;;;;;;;;;;;;10417693;28;20277;-60
2022/09/29 04:36:40;;;;;;;;;;;;;;;;;;10417321;28;19925;-59
2022/09/29 04:41:42;;;;;;;;;;;;;;;;;;10417352;28;19925;-60
2022/09/29 04:46:44;;;;;;;;;;;;;;;;;;10417435;28;19926;-60
2022/09/29 04:51:46;;;;;;;;;;;;;;;;;;10414631;28;19971;-60
2022/09/29 04:56:48;;;;;;;;;;;;;;;;;;10414569;28;19979;-59
2022/09/29 05:01:50;;;;;;;;;;;;;;;;;;10422890;22;19929;-62
2022/09/29 05:06:52;;;;;;;;;;;;;;;;;;10417932;28;19968;-61
2022/09/29 05:11:54;;;;;;;;;;;;;;;;;;10416646;28;19983;-61
2022/09/29 05:16:56;;;;;;;;;;;;;;;;;;10416131;28;19928;-62
2022/09/29 05:21:59;;;;;;;;;;;;;;;;;;10416973;28;20426;-61
2022/09/29 05:27:01;;;;;;;;;;;;;;;;;;10416473;28;19948;-61
2022/09/29 05:32:03;;;;;;;;;;;;;;;;;;10413908;28;20342;-61
2022/09/29 05:37:05;;;;;;;;;;;;;;;;;;10416570;28;19925;-61
2022/09/29 05:42:07;;;;;;;;;;;;;;;;;;10416473;28;19925;-61
2022/09/29 05:47:09;;;;;;;;;;;;;;;;;;10414551;28;19929;-61
2022/09/29 05:52:11;;;;;;;;;;;;;;;;;;10413927;28;19925;-61
2022/09/29 05:57:13;;;;;;;;;;;;;;;;;;10414463;28;19925;-61
2022/09/29 06:02:15;;;;;;;;;;;;;;;;;;10420295;28;19925;-61
2022/09/29 06:07:18;;;;;;;;;;;;;;;;;;10422895;28;19925;-61
2022/09/29 06:12:20;;;;;;;;;;;;;;;;;;10422501;28;19929;-61
2022/09/29 06:17:23;;;;;;;;;;;;;;;;;;10424143;28;19932;-61
2022/09/29 06:22:26;;;;;;;;;;;;;;;;;;10424066;28;19925;-61
2022/09/29 06:27:28;;;;;;;;;;;;;;;;;;10420847;28;20372;-61
2022/09/29 06:32:30;;;;;;;;;;;;;;;;;;10421624;28;20300;-61
2022/09/29 06:37:36;;;;;;;;;;;;;;;;;;10423358;28;19925;-61
2022/09/29 06:42:38;;;;;;;;;;;;;;;;;;10422553;28;20314;-61
2022/09/29 06:47:40;;;;;;;;;;;;;;;;;;10422274;28;19951;-61
2022/09/29 06:52:43;;;;;;;;;;;;;;;;;;10419699;28;19925;-61
2022/09/29 06:57:56;;;;;;;;;;;;;;;;;;10422110;28;19964;-61
2022/09/29 07:03:04;;;;;;;;;;;;;;;;;;10420637;28;19925;-61
2022/09/29 07:08:06;;;;;;;;;;;;;;;;;;10420329;28;20461;-61
2022/09/29 07:13:08;;;;;;;;;;;;;;;;;;10417178;28;19925;-61
2022/09/29 07:18:10;;;;;;;;;;;;;;;;;;10421165;28;20384;-62
2022/09/29 07:23:12;;;;;;;;;;;;;;;;;;10421327;28;19971;-61
2022/09/29 07:28:14;;;;;;;;;;;;;;;;;;10421352;28;19972;-62
2022/09/29 07:33:16;;;;;;;;;;;;;;;;;;10420647;28;20380;-62
2022/09/29 07:38:21;;;;;;;;;;;;;;;;;;10420398;28;20300;-62
2022/09/29 07:43:24;;;;;;;;;;;;;;;;;;10420187;28;20368;-62
2022/09/29 07:48:26;;;;;;;;;;;;;;;;;;10420638;28;19971;-62
2022/09/29 07:53:32;;;;;;;;;;;;;;;;;;10420508;28;19964;-62
2022/09/29 07:58:34;;;;;;;;;;;;;;;;;;10419415;28;19925;-62
2022/09/29 08:03:37;;;;;;;;;;;;;;;;;;10419379;28;19952;-62
2022/09/29 08:08:39;;;;;;;;;;;;;;;;;;10419150;28;20365;-62
2022/09/29 08:13:42;;;;;;;;;;;;;;;;;;10419664;28;19925;-62
2022/09/29 08:18:44;;;;;;;;;;;;;;;;;;10419440;28;19970;-63
2022/09/29 08:23:46;;;;;;;;;;;;;;;;;;10418414;28;20338;-63
2022/09/29 08:28:48;;;;;;;;;;;;;;;;;;10419026;28;19925;-63
2022/09/29 08:34:02;;;;;;;;;;;;;;;;;;10418547;28;20265;-63
2022/09/29 08:39:04;;;;;;;;;;;;;;;;;;10418018;28;20372;-63
2022/09/29 08:44:07;;;;;;;;;;;;;;;;;;10418480;28;19975;-63
2022/09/29 08:49:18;;;;;;;;;;;;;;;;;;10419096;28;19929;-63
2022/09/29 08:54:32;;;;;;;;;;;;;;;;;;10417612;28;19976;-64
2022/09/29 08:59:40;;;;;;;;;;;;;;;;;;10417945;28;19952;-64
2022/09/29 09:04:42;;;;;;;;;;;;;;;;;;10417008;28;19956;-64
2022/09/29 09:09:44;;;;;;;;;;;;;;;;;;10416822;28;19952;-64
2022/09/29 09:14:46;;;;;;;;;;;;;;;;;;10416757;28;20396;-64
2022/09/29 09:19:48;;;;;;;;;;;;;;;;;;10416523;28;20399;-64
2022/09/29 09:24:50;;;;;;;;;;;;;;;;;;10416327;28;20388;-64
2022/09/29 09:29:52;;;;;;;;;;;;;;;;;;10416775;28;19971;-64
2022/09/29 09:34:54;;;;;;;;;;;;;;;;;;10415542;28;20379;-64
2022/09/29 09:40:01;;;;;;;;;;;;;;;;;;10417219;28;19979;-65
2022/09/29 09:45:03;;;;;;;;;;;;;;;;;;10416374;28;19925;-65
2022/09/29 09:50:05;;;;;;;;;;;;;;;;;;10415665;28;19925;-65
2022/09/29 09:55:07;;;;;;;;;;;;;;;;;;10416196;28;19971;-65
2022/09/29 10:00:10;;;;;;;;;;;;;;;;;;10415894;28;19926;-65
2022/09/29 10:05:12;;;;;;;;;;;;;;;;;;10413631;28;19925;-64
2022/09/29 10:10:14;;;;;;;;;;;;;;;;;;10415426;28;19925;-65
2022/09/29 10:15:16;;;;;;;;;;;;;;;;;;10415029;28;19979;-64
2022/09/29 10:20:18;;;;;;;;;;;;;;;;;;10415596;28;19925;-64
2022/09/29 10:25:20;;;;;;;;;;;;;;;;;;10413637;28;19984;-65
2022/09/29 10:30:22;;;;;;;;;;;;;;;;;;10415413;28;19933;-65
2022/09/29 10:35:24;;;;;;;;;;;;;;;;;;10411551;28;19979;-65
2022/09/29 10:40:26;;;;;;;;;;;;;;;;;;10414256;28;19925;-66
2022/09/29 10:45:29;;;;;;;;;;;;;;;;;;10410223;28;20323;-66
2022/09/29 10:50:31;;;;;;;;;;;;;;;;;;10422233;28;20280;-67
2022/09/29 10:55:36;;;;;;;;;;;;;;;;;;10419489;28;19925;-67
2022/09/29 11:00:38;;;;;;;;;;;;;;;;;;10422364;28;19932;-67
2022/09/29 11:05:40;;;;;;;;;;;;;;;;;;10421695;28;19925;-68
2022/09/29 11:10:42;;;;;;;;;;;;;;;;;;10422186;28;19925;-69
2022/09/29 11:15:44;;;;;;;;;;;;;;;;;;10421269;28;20450;-69
2022/09/29 11:20:47;;;;;;;;;;;;;;;;;;10421677;28;19971;-69
2022/09/29 11:25:49;;;;;;;;;;;;;;;;;;10421192;28;20335;-69
2022/09/29 11:30:52;;;;;;;;;;;;;;;;;;10421346;28;19979;-69
2022/09/29 11:35:54;;;;;;;;;;;;;;;;;;10419388;28;19925;-69
2022/09/29 11:40:57;;;;;;;;;;;;;;;;;;10417755;28;19987;-69
2022/09/29 11:45:59;;;;;;;;;;;;;;;;;;10391958;28;19929;-68
2022/09/29 11:51:01;;;;;;;;;;;;;;;;;;10378972;28;19933;-68
2022/09/29 11:56:03;;;;;;;;;;;;;;;;;;10379339;28;19926;-68
2022/09/29 12:01:05;;;;;;;;;;;;;;;;;;10378222;28;19925;-67
2022/09/29 12:06:07;;;;;;;;;;;;;;;;;;10378279;28;20262;-67
2022/09/29 12:11:10;;;;;;;;;;;;;;;;;;10378812;28;19925;-67
2022/09/29 12:16:32;;;;;;;;;;;;;;;;;;10378697;28;19925;-68
2022/09/29 12:21:34;;;;;;;;;;;;;;;;;;10378478;28;19972;-68
2022/09/29 12:26:36;;;;;;;;;;;;;;;;;;10378245;28;19925;-68
2022/09/29 12:31:38;;;;;;;;;;;;;;;;;;10378182;28;19976;-69
2022/09/29 12:36:43;;;;;;;;;;;;;;;;;;10377320;28;19925;-69
2022/09/29 12:41:45;;;;;;;;;;;;;;;;;;10377135;28;19932;-69
2022/09/29 12:46:47;;;;;;;;;;;;;;;;;;10377425;28;19926;-69
2022/09/29 12:51:50;;;;;;;;;;;;;;;;;;10376721;28;20278;-68
2022/09/29 12:56:52;;;;;;;;;;;;;;;;;;10377110;28;19925;-64
2022/09/29 13:01:54;;;;;;;;;;;;;;;;;;10376711;28;19951;-63
2022/09/29 13:06:56;;;;;;;;;;;;;;;;;;10376661;28;19926;-63
2022/09/29 13:11:58;;;;;;;;;;;;;;;;;;10375819;28;19980;-63
2022/09/29 13:17:00;;;;;;;;;;;;;;;;;;10376467;28;19926;-63
2022/09/29 13:22:05;;;;;;;;;;;;;;;;;;10375693;28;20285;-63
2022/09/29 13:27:07;;;;;;;;;;;;;;;;;;10375883;28;19975;-63
2022/09/29 13:32:09;;;;;;;;;;;;;;;;;;10376027;28;19968;-65
2022/09/29 13:37:11;;;;;;;;;;;;;;;;;;10375847;28;19933;-65
2022/09/29 13:42:13;;;;;;;;;;;;;;;;;;10375689;28;19941;-65
2022/09/29 13:47:15;;;;;;;;;;;;;;;;;;10374868;28;19929;-65
2022/09/29 13:52:17;;;;;;;;;;;;;;;;;;10375428;28;19930;-65
2022/09/29 13:57:19;;;;;;;;;;;;;;;;;;10374725;28;19976;-65
2022/09/29 14:02:27;;;;;;;;;;;;;;;;;;10374502;28;19925;-65
2022/09/29 14:07:30;;;;;;;;;;;;;;;;;;10375059;28;19925;-65
2022/09/29 14:12:32;;;;;;;;;;;;;;;;;;10374412;28;19930;-65
2022/09/29 14:17:35;;;;;;;;;;;;;;;;;;10374915;28;19925;-65
2022/09/29 14:22:37;;;;;;;;;;;;;;;;;;10414160;28;19925;-65
2022/09/29 14:27:39;;;;;;;;;;;;;;;;;;10423726;28;19925;-64
2022/09/29 14:32:41;;;;;;;;;;;;;;;;;;10423480;28;19925;-64
2022/09/29 14:37:43;;;;;;;;;;;;;;;;;;10422844;28;20431;-64
2022/09/29 14:42:46;;;;;;;;;;;;;;;;;;10423294;28;19929;-64
2022/09/29 14:53:08;;;;;;;;;;;;;;;;;;10422318;28;19925;-64
2022/09/29 14:58:11;;;;;;;;;;;;;;;;;;10422698;28;19925;-64
2022/09/29 15:03:13;;;;;;;;;;;;;;;;;;10422450;28;19925;-64
2022/09/29 15:08:28;;;;;;;;;;;;;;;;;;10422291;28;19971;-64
2022/09/29 15:13:30;;;;;;;;;;;;;;;;;;10421487;28;20343;-64
2022/09/29 15:18:34;;;;;;;;;;;;;;;;;;10421910;28;19925;-64
2022/09/29 15:23:36;;;;;;;;;;;;;;;;;;10421717;28;19925;-64
2022/09/29 15:28:38;;;;;;;;;;;;;;;;;;10421009;28;19979;-64
2022/09/29 15:33:41;;;;;;;;;;;;;;;;;;10420416;28;19925;-64
2022/09/29 15:38:43;;;;;;;;;;;;;;;;;;10421170;28;20016;-64
2022/09/29 15:43:46;;;;;;;;;;;;;;;;;;10420314;28;20335;-64
2022/09/29 15:48:48;;;;;;;;;;;;;;;;;;10417587;28;19925;-64
2022/09/29 15:53:50;;;;;;;;;;;;;;;;;;10417823;28;20340;-64
2022/09/29 15:58:53;;;;;;;;;;;;;;;;;;10420392;28;19933;-64
2022/09/29 16:03:56;;;;;;;;;;;;;;;;;;10417215;28;19925;-64
2022/09/29 16:08:59;;;;;;;;;;;;;;;;;;10416231;28;19951;-64
2022/09/29 16:14:02;;;;;;;;;;;;;;;;;;10419841;28;20000;-64
2022/09/29 16:19:04;;;;;;;;;;;;;;;;;;10419596;28;20016;-64
2022/09/29 16:24:06;;;;;;;;;;;;;;;;;;10416675;28;20007;-64
2022/09/29 16:29:08;;;;;;;;;;;;;;;;;;10416389;28;19979;-64
2022/09/29 16:34:10;;;;;;;;;;;;;;;;;;10424739;28;19925;-65
2022/09/29 16:39:12;;;;;;;;;;;;;;;;;;10417417;28;20306;-64
2022/09/29 16:44:20;;;;;;;;;;;;;;;;;;10417796;28;19960;-64
2022/09/29 16:49:22;;;;;;;;;;;;;;;;;;10417057;28;19925;-64
2022/09/29 16:54:25;;;;;;;;;;;;;;;;;;10418189;28;19929;-63
2022/09/29 16:59:27;;;;;;;;;;;;;;;;;;10417337;28;20337;-63
2022/09/29 17:04:29;;;;;;;;;;;;;;;;;;10416331;28;19971;-63
2022/09/29 17:09:31;;;;;;;;;;;;;;;;;;10416842;28;20369;-63
2022/09/29 17:14:33;;;;;;;;;;;;;;;;;;10417194;28;19925;-62
2022/09/29 17:19:35;;;;;;;;;;;;;;;;;;10424803;22;20350;-63
2022/09/29 17:24:37;;;;;;;;;;;;;;;;;;10416522;28;19971;-63
2022/09/29 17:29:40;;;;;;;;;;;;;;;;;;10416895;28;19929;-63
2022/09/29 17:34:42;;;;;;;;;;;;;;;;;;10416783;28;19925;-63
2022/09/29 17:39:44;;;;;;;;;;;;;;;;;;10416609;28;19933;-68
2022/09/29 17:44:46;;;;;;;;;;;;;;;;;;10416445;28;19925;-63
2022/09/29 17:49:49;;;;;;;;;;;;;;;;;;10415620;28;19976;-62
2022/09/29 17:54:51;;;;;;;;;;;;;;;;;;10416187;28;19925;-62
2022/09/29 17:59:54;;;;;;;;;;;;;;;;;;10415645;28;19929;-63
2022/09/29 18:04:56;;;;;;;;;;;;;;;;;;10416057;28;19932;-63
2022/09/29 18:09:59;;;;;;;;;;;;;;;;;;10415853;28;19925;-63
2022/09/29 18:15:01;;;;;;;;;;;;;;;;;;10415633;28;19983;-62
2022/09/29 18:20:03;;;;;;;;;;;;;;;;;;10415200;28;19929;-63
2022/09/29 18:25:06;;;;;;;;;;;;;;;;;;10415034;28;19925;-63
2022/09/29 18:30:09;;;;;;;;;;;;;;;;;;10415507;28;20044;-63
2022/09/29 18:35:11;;;;;;;;;;;;;;;;;;10414823;28;19929;-63
2022/09/29 18:40:13;;;;;;;;;;;;;;;;;;10415403;28;19926;-63
2022/09/29 18:45:16;;;;;;;;;;;;;;;;;;10414638;28;19987;-63
2022/09/29 18:50:18;;;;;;;;;;;;;;;;;;10415118;28;19929;-63
2022/09/29 18:55:22;;;;;;;;;;;;;;;;;;10415105;28;19943;-63
2022/09/29 19:00:24;;;;;;;;;;;;;;;;;;10414355;28;19979;-63
2022/09/29 19:05:30;;;;;;;;;;;;;;;;;;10414234;28;20291;-63
2022/09/29 19:10:32;;;;;;;;;;;;;;;;;;10418621;28;19929;-63
2022/09/29 19:15:34;;;;;;;;;;;;;;;;;;10421260;28;19929;-63
2022/09/29 19:20:36;;;;;;;;;;;;;;;;;;10422005;28;19936;-60
2022/09/29 19:25:38;;;;;;;;;;;;;;;;;;10421771;28;19925;-61
2022/09/29 19:30:40;;;;;;;;;;;;;;;;;;10420840;28;19929;-60
2022/09/29 19:35:43;;;;;;;;;;;;;;;;;;10420761;28;19925;-60
2022/09/29 19:40:45;;;;;;;;;;;;;;;;;;10421143;28;19925;-60
2022/09/29 19:45:47;;;;;;;;;;;;;;;;;;10420317;28;19925;-60
2022/09/29 19:56:10;;;;;;;;;;;;;;;;;;10420555;28;19929;-60
2022/09/29 20:01:12;;;;;;;;;;;;;;;;;;10419738;28;19925;-60
2022/09/29 20:06:14;;;;;;;;;;;;;;;;;;10419544;28;19929;-60
2022/09/29 20:11:16;;;;;;;;;;;;;;;;;;10419901;28;19925;-60
2022/09/29 20:16:21;;;;;;;;;;;;;;;;;;10418846;28;19925;-60
2022/09/29 20:21:23;;;;;;;;;;;;;;;;;;10419176;28;19925;-62
2022/09/29 20:26:25;;;;;;;;;;;;;;;;;;10418858;28;19926;-63
2022/09/29 20:31:29;;;;;;;;;;;;;;;;;;10418477;28;20323;-63
2022/09/29 20:36:32;;;;;;;;;;;;;;;;;;10418353;28;19948;-63
2022/09/29 20:41:34;;;;;;;;;;;;;;;;;;10418782;28;19987;-63
2022/09/29 20:46:36;;;;;;;;;;;;;;;;;;10417892;28;20327;-63
2022/09/29 20:51:38;;;;;;;;;;;;;;;;;;10418368;28;20007;-63
2022/09/29 20:56:40;;;;;;;;;;;;;;;;;;10418174;28;19925;-63
2022/09/29 21:01:42;;;;;;;;;;;;;;;;;;10417428;28;19925;-63
2022/09/29 21:06:48;;;;;;;;;;;;;;;;;;10417764;28;20019;-63
2022/09/29 21:11:50;;;;;;;;;;;;;;;;;;10416985;28;19925;-63
2022/09/29 21:16:52;;;;;;;;;;;;;;;;;;10417031;28;19955;-63
2022/09/29 21:21:54;;;;;;;;;;;;;;;;;;10417317;28;19929;-63
2022/09/29 21:26:57;;;;;;;;;;;;;;;;;;10417002;28;19971;-63
2022/09/29 21:32:00;;;;;;;;;;;;;;;;;;10416254;28;19925;-63
2022/09/29 21:37:02;;;;;;;;;;;;;;;;;;10416796;28;19925;-63
2022/09/29 21:42:04;;;;;;;;;;;;;;;;;;10416004;28;19929;-63
2022/09/29 21:47:07;;;;;;;;;;;;;;;;;;10416414;28;19983;-63
2022/09/29 21:52:09;;;;;;;;;;;;;;;;;;10416365;28;19979;-63
2022/09/29 21:57:11;;;;;;;;;;;;;;;;;;10415635;28;20335;-63
2022/09/29 22:02:13;;;;;;;;;;;;;;;;;;10416158;28;19929;-63
2022/09/29 22:07:15;;;;;;;;;;;;;;;;;;10415992;28;19935;-63
2022/09/29 22:12:17;;;;;;;;;;;;;;;;;;10415296;28;20292;-63
2022/09/29 22:17:20;;;;;;;;;;;;;;;;;;10415372;28;19929;-63
2022/09/29 22:22:22;;;;;;;;;;;;;;;;;;10415075;28;20384;-63
2022/09/29 22:27:25;;;;;;;;;;;;;;;;;;10415580;28;19929;-63
2022/09/29 22:32:27;;;;;;;;;;;;;;;;;;10415558;28;19925;-63
2022/09/29 22:37:29;;;;;;;;;;;;;;;;;;10414819;28;20254;-63
2022/09/29 22:42:32;;;;;;;;;;;;;;;;;;10417334;28;19932;-63
2022/09/29 22:47:34;;;;;;;;;;;;;;;;;;10422463;28;20380;-63
2022/09/29 22:52:36;;;;;;;;;;;;;;;;;;10422491;28;19926;-63
2022/09/29 22:57:38;;;;;;;;;;;;;;;;;;10422268;28;20383;-63
2022/09/29 23:02:40;;;;;;;;;;;;;;;;;;10422688;28;19929;-63
2022/09/29 23:07:42;;;;;;;;;;;;;;;;;;10421771;28;20446;-63
2022/09/29 23:12:44;;;;;;;;;;;;;;;;;;10422277;28;19936;-63
2022/09/29 23:17:47;;;;;;;;;;;;;;;;;;10421506;28;19956;-63
2022/09/29 23:22:49;;;;;;;;;;;;;;;;;;10421745;28;20299;-62
2022/09/29 23:27:51;;;;;;;;;;;;;;;;;;10421667;28;19951;-62
2022/09/29 23:32:53;;;;;;;;;;;;;;;;;;10421511;28;19929;-63
2022/09/29 23:43:16;;;;;;;;;;;;;;;;;;10420477;28;20351;-62
2022/09/29 23:48:18;;;;;;;;;;;;;;;;;;10420905;28;19925;-62
2022/09/29 23:53:20;;;;;;;;;;;;;;;;;;10420209;28;19925;-62
2022/09/29 23:58:22;;;;;;;;;;;;;;;;;;10419737;28;19926;-62
